createdAt,value
2018-03-30T00:00:35.882Z,996.69
2018-03-30T00:01:35.934Z,996.67
2018-03-30T00:02:35.989Z,996.66
2018-03-30T00:03:36.041Z,996.71
2018-03-30T00:04:36.096Z,996.66
2018-03-30T00:05:36.153Z,996.64
2018-03-30T00:06:36.203Z,996.63
2018-03-30T00:07:36.256Z,996.64
2018-03-30T00:08:36.309Z,996.61
2018-03-30T00:09:36.362Z,996.62
2018-03-30T00:10:36.417Z,996.56
2018-03-30T00:11:36.470Z,996.56
2018-03-30T00:12:36.523Z,996.54
2018-03-30T00:13:36.577Z,996.50
2018-03-30T00:14:36.631Z,996.51
2018-03-30T00:15:36.687Z,996.50
2018-03-30T00:16:36.739Z,996.47
2018-03-30T00:17:36.790Z,996.47
2018-03-30T00:18:36.844Z,996.47
2018-03-30T00:19:36.905Z,996.49
2018-03-30T00:20:37.202Z,996.47
2018-03-30T00:21:37.005Z,996.48
2018-03-30T00:22:37.059Z,996.53
2018-03-30T00:23:37.114Z,996.50
2018-03-30T00:24:37.165Z,996.47
2018-03-30T00:25:37.369Z,996.49
2018-03-30T00:26:37.275Z,996.48
2018-03-30T00:27:37.327Z,996.48
2018-03-30T00:28:37.381Z,996.44
2018-03-30T00:29:37.433Z,996.45
2018-03-30T00:30:37.487Z,996.46
2018-03-30T00:31:37.541Z,996.41
2018-03-30T00:32:37.594Z,996.42
2018-03-30T00:33:37.648Z,996.40
2018-03-30T00:34:37.701Z,996.41
2018-03-30T00:35:37.754Z,996.42
2018-03-30T00:36:37.809Z,996.39
2018-03-30T00:37:37.860Z,996.39
2018-03-30T00:38:37.915Z,996.36
2018-03-30T00:39:37.972Z,996.31
2018-03-30T00:40:38.023Z,996.33
2018-03-30T00:41:38.074Z,996.36
2018-03-30T00:42:38.128Z,996.33
2018-03-30T00:43:38.182Z,996.32
2018-03-30T00:44:38.235Z,996.30
2018-03-30T00:45:38.289Z,996.27
2018-03-30T00:46:38.341Z,996.27
2018-03-30T00:47:38.396Z,996.27
2018-03-30T00:48:38.450Z,996.28
2018-03-30T00:49:38.501Z,996.21
2018-03-30T00:50:38.555Z,996.27
2018-03-30T00:51:38.608Z,996.23
2018-03-30T00:52:38.662Z,996.25
2018-03-30T00:53:38.716Z,996.24
2018-03-30T00:54:38.768Z,996.24
2018-03-30T00:55:38.823Z,996.25
2018-03-30T00:56:38.876Z,996.25
2018-03-30T00:57:38.930Z,996.24
2018-03-30T00:58:38.985Z,996.24
2018-03-30T00:59:39.037Z,996.22
2018-03-30T01:00:39.089Z,996.21
2018-03-30T01:01:39.142Z,996.24
2018-03-30T01:02:39.195Z,996.23
2018-03-30T01:03:39.257Z,996.21
2018-03-30T01:04:39.303Z,996.22
2018-03-30T01:05:39.356Z,996.18
2018-03-30T01:06:39.408Z,996.23
2018-03-30T01:07:39.463Z,996.16
2018-03-30T01:08:39.518Z,996.21
2018-03-30T01:09:39.570Z,996.18
2018-03-30T01:10:39.623Z,996.23
2018-03-30T01:11:39.677Z,996.21
2018-03-30T01:12:39.730Z,996.21
2018-03-30T01:13:39.782Z,996.19
2018-03-30T01:14:39.836Z,996.23
2018-03-30T01:15:39.891Z,996.20
2018-03-30T01:16:39.945Z,996.17
2018-03-30T01:17:39.998Z,996.18
2018-03-30T01:18:40.051Z,996.15
2018-03-30T01:19:40.104Z,996.18
2018-03-30T01:20:40.158Z,996.15
2018-03-30T01:21:40.210Z,996.14
2018-03-30T01:22:40.265Z,996.11
2018-03-30T01:23:40.317Z,996.15
2018-03-30T01:24:40.371Z,996.14
2018-03-30T01:25:40.424Z,996.11
2018-03-30T01:26:40.477Z,996.10
2018-03-30T01:27:40.530Z,996.12
2018-03-30T01:28:40.584Z,996.11
2018-03-30T01:29:40.636Z,996.08
2018-03-30T01:30:40.690Z,996.08
2018-03-30T01:31:40.745Z,996.06
2018-03-30T01:32:40.798Z,996.03
2018-03-30T01:33:40.851Z,996.06
2018-03-30T01:34:40.905Z,996.03
2018-03-30T01:35:40.958Z,996.06
2018-03-30T01:36:41.012Z,996.01
2018-03-30T01:37:41.064Z,996.06
2018-03-30T01:38:41.118Z,995.98
2018-03-30T01:39:41.170Z,996.02
2018-03-30T01:40:41.225Z,996.00
2018-03-30T01:41:41.276Z,995.99
2018-03-30T01:42:41.330Z,995.98
2018-03-30T01:43:41.382Z,996.00
2018-03-30T01:44:41.437Z,995.98
2018-03-30T01:45:41.495Z,995.95
2018-03-30T01:46:41.543Z,995.96
2018-03-30T01:47:41.596Z,995.96
2018-03-30T01:48:41.650Z,995.99
2018-03-30T01:49:41.854Z,995.94
2018-03-30T01:50:41.755Z,995.96
2018-03-30T01:51:41.811Z,995.96
2018-03-30T01:52:41.862Z,995.94
2018-03-30T01:53:41.915Z,995.92
2018-03-30T01:54:41.970Z,995.92
2018-03-30T01:55:42.024Z,995.91
2018-03-30T01:56:42.076Z,995.90
2018-03-30T01:57:42.133Z,995.85
2018-03-30T01:58:42.185Z,995.82
2018-03-30T01:59:42.236Z,995.83
2018-03-30T02:00:42.291Z,995.84
2018-03-30T02:01:42.387Z,995.78
2018-03-30T02:02:42.395Z,995.80
2018-03-30T02:03:42.448Z,995.78
2018-03-30T02:04:42.502Z,995.76
2018-03-30T02:05:42.554Z,995.74
2018-03-30T02:06:42.859Z,995.75
2018-03-30T02:07:42.663Z,995.74
2018-03-30T02:08:42.715Z,995.73
2018-03-30T02:09:42.768Z,995.70
2018-03-30T02:10:42.821Z,995.70
2018-03-30T02:11:42.875Z,995.70
2018-03-30T02:12:42.929Z,995.70
2018-03-30T02:13:42.980Z,995.66
2018-03-30T02:14:43.040Z,995.67
2018-03-30T02:15:43.488Z,995.65
2018-03-30T02:16:43.141Z,995.68
2018-03-30T02:17:43.194Z,995.65
2018-03-30T02:18:43.247Z,995.63
2018-03-30T02:19:43.303Z,995.66
2018-03-30T02:20:43.356Z,995.61
2018-03-30T02:21:43.408Z,995.61
2018-03-30T02:22:43.461Z,995.60
2018-03-30T02:23:43.514Z,995.60
2018-03-30T02:24:43.568Z,995.57
2018-03-30T02:25:43.625Z,995.60
2018-03-30T02:26:43.674Z,995.60
2018-03-30T02:27:43.727Z,995.58
2018-03-30T02:28:43.781Z,995.58
2018-03-30T02:29:43.834Z,995.55
2018-03-30T02:30:43.888Z,995.51
2018-03-30T02:31:43.940Z,995.54
2018-03-30T02:32:43.997Z,995.57
2018-03-30T02:33:44.048Z,995.51
2018-03-30T02:34:44.102Z,995.52
2018-03-30T02:35:44.156Z,995.51
2018-03-30T02:36:44.207Z,995.47
2018-03-30T02:37:44.262Z,995.50
2018-03-30T02:38:44.314Z,995.49
2018-03-30T02:39:44.369Z,995.50
2018-03-30T02:40:44.421Z,995.47
2018-03-30T02:41:44.473Z,995.47
2018-03-30T02:42:44.528Z,995.41
2018-03-30T02:43:44.582Z,995.45
2018-03-30T02:44:44.634Z,995.43
2018-03-30T02:45:44.686Z,995.43
2018-03-30T02:46:44.742Z,995.43
2018-03-30T02:47:44.794Z,995.46
2018-03-30T02:48:44.847Z,995.44
2018-03-30T02:49:44.907Z,995.45
2018-03-30T02:50:44.970Z,995.44
2018-03-30T02:51:45.008Z,995.45
2018-03-30T02:52:45.066Z,995.41
2018-03-30T02:53:45.116Z,995.44
2018-03-30T02:54:45.177Z,995.44
2018-03-30T02:55:45.221Z,995.39
2018-03-30T02:56:45.274Z,995.43
2018-03-30T02:57:45.326Z,995.44
2018-03-30T02:58:45.380Z,995.40
2018-03-30T02:59:45.432Z,995.41
2018-03-30T03:00:45.491Z,995.42
2018-03-30T03:01:45.540Z,995.40
2018-03-30T03:02:45.593Z,995.35
2018-03-30T03:03:45.654Z,995.33
2018-03-30T03:04:45.699Z,995.36
2018-03-30T03:05:45.754Z,995.35
2018-03-30T03:06:45.812Z,995.38
2018-03-30T03:07:45.860Z,995.37
2018-03-30T03:08:45.914Z,995.39
2018-03-30T03:09:45.966Z,995.37
2018-03-30T03:10:46.020Z,995.38
2018-03-30T03:11:46.073Z,995.34
2018-03-30T03:12:46.129Z,995.33
2018-03-30T03:13:46.180Z,995.35
2018-03-30T03:14:46.231Z,995.31
2018-03-30T03:15:46.287Z,995.30
2018-03-30T03:16:46.344Z,995.31
2018-03-30T03:17:46.393Z,995.37
2018-03-30T03:18:46.445Z,995.35
2018-03-30T03:19:46.499Z,995.29
2018-03-30T03:20:46.554Z,995.30
2018-03-30T03:21:46.605Z,995.28
2018-03-30T03:22:46.659Z,995.24
2018-03-30T03:23:46.714Z,995.25
2018-03-30T03:24:46.767Z,995.21
2018-03-30T03:25:46.819Z,995.21
2018-03-30T03:26:46.872Z,995.18
2018-03-30T03:27:46.925Z,995.16
2018-03-30T03:28:47.005Z,995.18
2018-03-30T03:29:47.033Z,995.18
2018-03-30T03:30:47.089Z,995.16
2018-03-30T03:31:47.147Z,995.14
2018-03-30T03:32:47.194Z,995.11
2018-03-30T03:33:47.247Z,995.15
2018-03-30T03:34:47.300Z,995.16
2018-03-30T03:35:47.355Z,995.15
2018-03-30T03:36:47.659Z,995.15
2018-03-30T03:37:47.461Z,995.15
2018-03-30T03:38:47.516Z,995.13
2018-03-30T03:39:47.569Z,995.13
2018-03-30T03:40:47.623Z,995.14
2018-03-30T03:41:47.826Z,995.11
2018-03-30T03:42:47.730Z,995.08
2018-03-30T03:43:47.784Z,995.07
2018-03-30T03:44:47.837Z,995.09
2018-03-30T03:45:47.891Z,995.09
2018-03-30T03:46:47.942Z,995.06
2018-03-30T03:47:47.997Z,995.05
2018-03-30T03:48:48.054Z,995.07
2018-03-30T03:49:48.106Z,995.01
2018-03-30T03:50:48.157Z,995.03
2018-03-30T03:51:48.210Z,995.01
2018-03-30T03:52:48.264Z,995.00
2018-03-30T03:53:48.317Z,995.02
2018-03-30T03:54:48.370Z,994.99
2018-03-30T03:55:48.424Z,995.01
2018-03-30T03:56:48.477Z,995.01
2018-03-30T03:57:48.536Z,994.99
2018-03-30T03:58:48.584Z,994.99
2018-03-30T03:59:48.639Z,994.96
2018-03-30T04:00:48.728Z,994.95
2018-03-30T04:01:48.745Z,994.92
2018-03-30T04:02:48.797Z,994.95
2018-03-30T04:03:48.851Z,994.95
2018-03-30T04:04:48.905Z,994.95
2018-03-30T04:05:48.958Z,994.92
2018-03-30T04:06:49.010Z,994.90
2018-03-30T04:07:49.066Z,994.88
2018-03-30T04:08:49.117Z,994.90
2018-03-30T04:09:49.173Z,994.92
2018-03-30T04:10:49.223Z,994.90
2018-03-30T04:11:49.277Z,994.91
2018-03-30T04:12:49.336Z,994.84
2018-03-30T04:13:49.383Z,994.85
2018-03-30T04:14:49.440Z,994.85
2018-03-30T04:15:49.490Z,994.84
2018-03-30T04:16:49.547Z,994.83
2018-03-30T04:17:49.596Z,994.83
2018-03-30T04:18:49.651Z,994.86
2018-03-30T04:19:49.703Z,994.87
2018-03-30T04:20:49.758Z,994.84
2018-03-30T04:21:49.808Z,994.82
2018-03-30T04:22:49.862Z,994.80
2018-03-30T04:23:49.916Z,994.79
2018-03-30T04:24:49.974Z,994.77
2018-03-30T04:25:50.022Z,994.77
2018-03-30T04:26:50.078Z,994.81
2018-03-30T04:27:50.129Z,994.81
2018-03-30T04:28:50.183Z,994.79
2018-03-30T04:29:50.236Z,994.78
2018-03-30T04:30:50.289Z,994.77
2018-03-30T04:31:50.342Z,994.76
2018-03-30T04:32:50.649Z,994.81
2018-03-30T04:33:50.450Z,994.76
2018-03-30T04:34:50.503Z,994.76
2018-03-30T04:35:50.556Z,994.80
2018-03-30T04:36:50.610Z,994.78
2018-03-30T04:37:50.663Z,994.76
2018-03-30T04:38:50.715Z,994.77
2018-03-30T04:39:50.769Z,994.77
2018-03-30T04:40:50.822Z,994.78
2018-03-30T04:41:50.875Z,994.84
2018-03-30T04:42:50.930Z,994.82
2018-03-30T04:43:50.981Z,994.77
2018-03-30T04:44:51.037Z,994.77
2018-03-30T04:45:51.088Z,994.78
2018-03-30T04:46:51.141Z,994.75
2018-03-30T04:47:51.195Z,994.73
2018-03-30T04:48:51.249Z,994.74
2018-03-30T04:49:51.302Z,994.72
2018-03-30T04:50:51.356Z,994.71
2018-03-30T04:51:51.410Z,994.69
2018-03-30T04:52:51.462Z,994.71
2018-03-30T04:53:51.519Z,994.71
2018-03-30T04:54:51.569Z,994.69
2018-03-30T04:55:51.623Z,994.68
2018-03-30T04:56:51.676Z,994.65
2018-03-30T04:57:51.729Z,994.67
2018-03-30T04:58:51.782Z,994.67
2018-03-30T04:59:51.839Z,994.70
2018-03-30T05:00:51.889Z,994.70
2018-03-30T05:01:51.942Z,994.64
2018-03-30T05:02:51.994Z,994.68
2018-03-30T05:03:52.048Z,994.68
2018-03-30T05:04:52.102Z,994.64
2018-03-30T05:05:52.154Z,994.66
2018-03-30T05:06:52.211Z,994.66
2018-03-30T05:07:52.267Z,994.65
2018-03-30T05:08:52.314Z,994.64
2018-03-30T05:09:52.366Z,994.68
2018-03-30T05:10:52.423Z,994.70
2018-03-30T05:11:52.473Z,994.69
2018-03-30T05:12:52.533Z,994.68
2018-03-30T05:13:52.579Z,994.63
2018-03-30T05:14:52.635Z,994.67
2018-03-30T05:15:52.687Z,994.66
2018-03-30T05:16:52.741Z,994.66
2018-03-30T05:17:52.792Z,994.65
2018-03-30T05:18:52.845Z,994.67
2018-03-30T05:19:52.901Z,994.65
2018-03-30T05:20:52.951Z,994.69
2018-03-30T05:21:53.004Z,994.72
2018-03-30T05:22:53.308Z,994.71
2018-03-30T05:23:53.111Z,994.74
2018-03-30T05:24:53.164Z,994.74
2018-03-30T05:25:53.215Z,994.76
2018-03-30T05:26:53.269Z,994.75
2018-03-30T05:27:53.322Z,994.73
2018-03-30T05:28:53.382Z,994.76
2018-03-30T05:29:53.427Z,994.67
2018-03-30T05:30:53.485Z,994.67
2018-03-30T05:31:53.537Z,994.68
2018-03-30T05:32:53.587Z,994.69
2018-03-30T05:33:53.640Z,994.66
2018-03-30T05:34:53.694Z,994.61
2018-03-30T05:35:53.748Z,994.63
2018-03-30T05:36:53.799Z,994.64
2018-03-30T05:37:53.850Z,994.66
2018-03-30T05:38:53.908Z,994.66
2018-03-30T05:39:53.958Z,994.66
2018-03-30T05:40:54.010Z,994.65
2018-03-30T05:41:54.063Z,994.68
2018-03-30T05:42:54.116Z,994.64
2018-03-30T05:43:54.170Z,994.67
2018-03-30T05:44:54.222Z,994.65
2018-03-30T05:45:54.275Z,994.61
2018-03-30T05:46:54.336Z,994.66
2018-03-30T05:47:54.382Z,994.69
2018-03-30T05:48:54.435Z,994.69
2018-03-30T05:49:54.487Z,994.70
2018-03-30T05:50:54.574Z,994.68
2018-03-30T05:51:54.601Z,994.69
2018-03-30T05:52:54.650Z,994.65
2018-03-30T05:53:54.699Z,994.65
2018-03-30T05:54:54.755Z,994.62
2018-03-30T05:55:54.807Z,994.66
2018-03-30T05:56:54.861Z,994.63
2018-03-30T05:57:54.917Z,994.61
2018-03-30T05:58:54.966Z,994.64
2018-03-30T05:59:55.019Z,994.60
2018-03-30T06:00:55.076Z,994.62
2018-03-30T06:01:55.127Z,994.61
2018-03-30T06:02:55.177Z,994.66
2018-03-30T06:03:55.232Z,994.64
2018-03-30T06:04:55.285Z,994.60
2018-03-30T06:05:55.337Z,994.60
2018-03-30T06:06:55.420Z,994.55
2018-03-30T06:07:55.445Z,994.58
2018-03-30T06:08:55.498Z,994.56
2018-03-30T06:09:55.551Z,994.60
2018-03-30T06:10:55.606Z,994.52
2018-03-30T06:11:55.663Z,994.52
2018-03-30T06:12:55.716Z,994.52
2018-03-30T06:13:55.765Z,994.55
2018-03-30T06:14:55.819Z,994.54
2018-03-30T06:15:55.872Z,994.50
2018-03-30T06:16:55.926Z,994.53
2018-03-30T06:17:55.978Z,994.51
2018-03-30T06:18:56.033Z,994.56
2018-03-30T06:19:56.085Z,994.52
2018-03-30T06:20:56.140Z,994.50
2018-03-30T06:21:56.192Z,994.52
2018-03-30T06:22:56.247Z,994.53
2018-03-30T06:23:56.306Z,994.56
2018-03-30T06:24:56.355Z,994.53
2018-03-30T06:25:56.408Z,994.54
2018-03-30T06:26:56.461Z,994.49
2018-03-30T06:27:56.519Z,994.52
2018-03-30T06:28:56.570Z,994.49
2018-03-30T06:29:56.622Z,994.52
2018-03-30T06:30:56.679Z,994.51
2018-03-30T06:31:56.730Z,994.51
2018-03-30T06:32:56.789Z,994.53
2018-03-30T06:33:56.837Z,994.51
2018-03-30T06:34:56.892Z,994.52
2018-03-30T06:35:56.947Z,994.47
2018-03-30T06:36:57.000Z,994.44
2018-03-30T06:37:57.053Z,994.42
2018-03-30T06:38:57.106Z,994.45
2018-03-30T06:39:57.160Z,994.41
2018-03-30T06:40:57.214Z,994.44
2018-03-30T06:41:57.269Z,994.43
2018-03-30T06:42:57.322Z,994.44
2018-03-30T06:43:57.377Z,994.43
2018-03-30T06:44:57.432Z,994.45
2018-03-30T06:45:57.484Z,994.42
2018-03-30T06:46:57.539Z,994.49
2018-03-30T06:47:57.593Z,994.45
2018-03-30T06:48:57.655Z,994.46
2018-03-30T06:49:57.701Z,994.51
2018-03-30T06:50:57.754Z,994.46
2018-03-30T06:51:57.809Z,994.48
2018-03-30T06:52:57.862Z,994.49
2018-03-30T06:53:57.916Z,994.50
2018-03-30T06:54:57.970Z,994.49
2018-03-30T06:55:58.024Z,994.47
2018-03-30T06:56:58.079Z,994.47
2018-03-30T06:57:58.132Z,994.47
2018-03-30T06:58:58.188Z,994.45
2018-03-30T06:59:58.586Z,994.47
2018-03-30T07:00:58.297Z,994.44
2018-03-30T07:01:58.355Z,994.48
2018-03-30T07:02:58.405Z,994.46
2018-03-30T07:03:58.459Z,994.48
2018-03-30T07:04:58.874Z,994.45
2018-03-30T07:05:58.568Z,994.47
2018-03-30T07:06:58.622Z,994.46
2018-03-30T07:07:58.677Z,994.45
2018-03-30T07:08:58.731Z,994.47
2018-03-30T07:09:58.785Z,994.47
2018-03-30T07:10:58.842Z,994.47
2018-03-30T07:11:58.894Z,994.45
2018-03-30T07:12:58.950Z,994.47
2018-03-30T07:13:59.003Z,994.47
2018-03-30T07:14:59.058Z,994.47
2018-03-30T07:15:59.123Z,994.42
2018-03-30T07:16:59.220Z,994.43
2018-03-30T07:17:59.222Z,994.38
2018-03-30T07:18:59.277Z,994.37
2018-03-30T07:19:59.333Z,994.38
2018-03-30T07:20:59.387Z,994.39
2018-03-30T07:21:59.442Z,994.36
2018-03-30T07:22:59.497Z,994.36
2018-03-30T07:23:59.553Z,994.35
2018-03-30T07:24:59.611Z,994.36
2018-03-30T07:25:59.663Z,994.30
2018-03-30T07:26:59.723Z,994.28
2018-03-30T07:27:59.772Z,994.28
2018-03-30T07:28:59.827Z,994.25
2018-03-30T07:29:59.880Z,994.24
2018-03-30T07:30:59.937Z,994.25
2018-03-30T07:31:59.992Z,994.18
2018-03-30T07:33:00.047Z,994.26
2018-03-30T07:34:00.103Z,994.20
2018-03-30T07:35:00.159Z,994.15
2018-03-30T07:36:00.214Z,994.12
2018-03-30T07:37:00.272Z,994.12
2018-03-30T07:38:00.324Z,994.08
2018-03-30T07:39:00.383Z,994.12
2018-03-30T07:40:00.918Z,994.12
2018-03-30T07:41:00.496Z,994.07
2018-03-30T07:42:00.544Z,994.05
2018-03-30T07:43:00.600Z,994.03
2018-03-30T07:44:00.657Z,994.00
2018-03-30T07:45:00.712Z,994.01
2018-03-30T07:46:00.767Z,993.97
2018-03-30T07:47:00.822Z,993.95
2018-03-30T07:48:00.879Z,993.95
2018-03-30T07:49:00.933Z,993.96
2018-03-30T07:50:01.039Z,993.90
2018-03-30T07:51:01.044Z,993.93
2018-03-30T07:52:01.102Z,993.89
2018-03-30T07:53:01.159Z,993.85
2018-03-30T07:54:01.215Z,993.85
2018-03-30T07:55:01.269Z,993.85
2018-03-30T07:56:01.323Z,993.80
2018-03-30T07:57:01.381Z,993.78
2018-03-30T07:58:01.439Z,993.80
2018-03-30T07:59:01.492Z,993.79
2018-03-30T08:00:01.547Z,993.74
2018-03-30T08:01:01.604Z,993.75
2018-03-30T08:02:01.660Z,993.76
2018-03-30T08:03:01.715Z,993.71
2018-03-30T08:04:01.773Z,993.68
2018-03-30T08:05:01.829Z,993.71
2018-03-30T08:06:01.885Z,993.69
2018-03-30T08:07:01.942Z,993.65
2018-03-30T08:08:01.998Z,993.64
2018-03-30T08:09:02.087Z,993.59
2018-03-30T08:10:02.110Z,993.55
2018-03-30T08:11:02.171Z,993.52
2018-03-30T08:12:02.227Z,993.53
2018-03-30T08:13:02.280Z,993.47
2018-03-30T08:14:02.338Z,993.48
2018-03-30T08:15:02.395Z,993.42
2018-03-30T08:16:02.452Z,993.39
2018-03-30T08:17:02.509Z,993.38
2018-03-30T08:18:02.564Z,993.38
2018-03-30T08:19:02.624Z,993.38
2018-03-30T08:20:02.929Z,993.34
2018-03-30T08:21:02.792Z,993.31
2018-03-30T08:22:02.792Z,993.29
2018-03-30T08:23:02.851Z,993.30
2018-03-30T08:24:02.909Z,993.28
2018-03-30T08:25:02.966Z,993.28
2018-03-30T08:26:03.022Z,993.22
2018-03-30T08:27:03.080Z,993.25
2018-03-30T08:28:03.140Z,993.27
2018-03-30T08:29:03.197Z,993.26
2018-03-30T08:30:03.254Z,993.22
2018-03-30T08:31:03.311Z,993.21
2018-03-30T08:32:03.369Z,993.20
2018-03-30T08:33:03.426Z,993.19
2018-03-30T08:34:03.486Z,993.20
2018-03-30T08:35:03.551Z,993.18
2018-03-30T08:36:03.600Z,993.16
2018-03-30T08:37:03.662Z,993.10
2018-03-30T08:38:03.715Z,993.09
2018-03-30T08:39:03.773Z,993.08
2018-03-30T08:40:03.832Z,993.10
2018-03-30T08:41:03.890Z,993.12
2018-03-30T08:42:03.948Z,993.11
2018-03-30T08:43:04.005Z,993.10
2018-03-30T08:44:04.215Z,993.15
2018-03-30T08:45:04.123Z,993.13
2018-03-30T08:46:04.184Z,993.14
2018-03-30T08:47:04.239Z,993.18
2018-03-30T08:48:04.297Z,993.17
2018-03-30T08:49:05.096Z,993.15
2018-03-30T08:50:04.415Z,993.15
2018-03-30T08:51:04.473Z,993.12
2018-03-30T08:52:04.531Z,993.13
2018-03-30T08:53:04.590Z,993.13
2018-03-30T08:54:04.650Z,993.13
2018-03-30T08:55:04.706Z,993.09
2018-03-30T08:56:04.785Z,993.07
2018-03-30T08:57:04.825Z,993.07
2018-03-30T08:58:04.886Z,993.05
2018-03-30T08:59:04.945Z,993.05
2018-03-30T09:00:05.002Z,993.05
2018-03-30T09:01:05.061Z,992.99
2018-03-30T09:02:05.118Z,992.98
2018-03-30T09:03:05.179Z,992.98
2018-03-30T09:04:05.238Z,992.98
2018-03-30T09:05:05.297Z,992.97
2018-03-30T09:06:05.357Z,992.98
2018-03-30T09:07:05.434Z,992.97
2018-03-30T09:08:05.476Z,992.89
2018-03-30T09:09:05.536Z,992.92
2018-03-30T09:10:05.594Z,992.91
2018-03-30T09:11:05.654Z,992.93
2018-03-30T09:12:06.278Z,992.93
2018-03-30T09:13:05.773Z,992.95
2018-03-30T09:14:05.831Z,992.92
2018-03-30T09:15:05.892Z,992.93
2018-03-30T09:16:05.953Z,992.97
2018-03-30T09:17:06.015Z,992.93
2018-03-30T09:18:06.072Z,992.96
2018-03-30T09:19:06.134Z,992.94
2018-03-30T09:20:06.192Z,992.93
2018-03-30T09:21:06.253Z,992.92
2018-03-30T09:22:06.312Z,992.93
2018-03-30T09:23:06.373Z,992.94
2018-03-30T09:24:06.433Z,992.91
2018-03-30T09:25:06.493Z,992.95
2018-03-30T09:26:06.553Z,992.91
2018-03-30T09:27:06.629Z,992.92
2018-03-30T09:28:06.675Z,992.89
2018-03-30T09:29:06.735Z,992.88
2018-03-30T09:30:06.796Z,992.89
2018-03-30T09:31:06.856Z,992.88
2018-03-30T09:32:06.917Z,992.82
2018-03-30T09:33:06.978Z,992.82
2018-03-30T09:34:07.037Z,992.79
2018-03-30T09:35:07.098Z,992.75
2018-03-30T09:36:07.161Z,992.72
2018-03-30T09:37:07.224Z,992.74
2018-03-30T09:38:07.281Z,992.68
2018-03-30T09:39:07.343Z,992.66
2018-03-30T09:40:07.405Z,992.62
2018-03-30T09:41:07.466Z,992.59
2018-03-30T09:42:07.525Z,992.56
2018-03-30T09:43:07.587Z,992.54
2018-03-30T09:44:07.648Z,992.47
2018-03-30T09:45:07.709Z,992.48
2018-03-30T09:46:07.770Z,992.45
2018-03-30T09:47:07.834Z,992.42
2018-03-30T09:48:07.893Z,992.40
2018-03-30T09:49:07.954Z,992.38
2018-03-30T09:50:08.014Z,992.37
2018-03-30T09:51:08.075Z,992.34
2018-03-30T09:52:08.136Z,992.35
2018-03-30T09:53:08.198Z,992.26
2018-03-30T09:54:08.259Z,992.28
2018-03-30T09:55:08.319Z,992.25
2018-03-30T09:56:08.382Z,992.23
2018-03-30T09:57:08.442Z,992.19
2018-03-30T09:58:08.504Z,992.14
2018-03-30T09:59:08.573Z,992.14
2018-03-30T10:00:08.628Z,992.13
2018-03-30T10:01:08.689Z,992.08
2018-03-30T10:02:08.749Z,992.08
2018-03-30T10:03:08.813Z,992.02
2018-03-30T10:04:08.873Z,991.95
2018-03-30T10:05:08.936Z,991.87
2018-03-30T10:06:08.997Z,991.82
2018-03-30T10:07:09.362Z,991.81
2018-03-30T10:08:09.121Z,991.75
2018-03-30T10:09:09.183Z,991.64
2018-03-30T10:10:09.246Z,991.61
2018-03-30T10:11:09.308Z,991.57
2018-03-30T10:12:09.370Z,991.52
2018-03-30T10:13:09.432Z,991.53
2018-03-30T10:14:09.493Z,991.54
2018-03-30T10:15:09.556Z,991.52
2018-03-30T10:16:09.620Z,991.45
2018-03-30T10:17:09.681Z,991.43
2018-03-30T10:18:09.762Z,991.43
2018-03-30T10:19:09.808Z,991.38
2018-03-30T10:20:09.868Z,991.32
2018-03-30T10:21:09.933Z,991.32
2018-03-30T10:22:09.992Z,991.33
2018-03-30T10:23:10.056Z,991.28
2018-03-30T10:24:10.134Z,991.27
2018-03-30T10:25:10.179Z,991.22
2018-03-30T10:26:10.244Z,991.16
2018-03-30T10:27:10.305Z,991.12
2018-03-30T10:28:10.370Z,991.01
2018-03-30T10:29:10.430Z,991.01
2018-03-30T10:30:10.491Z,990.88
2018-03-30T10:31:10.553Z,990.83
2018-03-30T10:32:10.616Z,990.78
2018-03-30T10:33:10.678Z,990.73
2018-03-30T10:34:10.742Z,990.72
2018-03-30T10:35:10.804Z,990.68
2018-03-30T10:36:10.865Z,990.75
2018-03-30T10:37:10.930Z,990.75
2018-03-30T10:38:10.990Z,990.83
2018-03-30T10:39:11.056Z,990.97
2018-03-30T10:40:11.116Z,990.98
2018-03-30T10:41:11.181Z,991.07
2018-03-30T10:42:11.239Z,991.01
2018-03-30T10:43:11.306Z,991.13
2018-03-30T10:44:11.364Z,991.19
2018-03-30T10:45:11.428Z,991.13
2018-03-30T10:46:11.488Z,991.15
2018-03-30T10:47:11.551Z,991.17
2018-03-30T10:48:11.614Z,991.09
2018-03-30T10:49:11.678Z,991.03
2018-03-30T10:50:11.738Z,990.90
2018-03-30T10:51:11.802Z,990.87
2018-03-30T10:52:11.865Z,990.93
2018-03-30T10:53:11.929Z,990.94
2018-03-30T10:54:11.991Z,990.74
2018-03-30T10:55:12.053Z,990.78
2018-03-30T10:56:12.118Z,990.81
2018-03-30T10:57:12.181Z,990.87
2018-03-30T10:58:12.245Z,990.84
2018-03-30T10:59:12.309Z,990.83
2018-03-30T11:00:12.371Z,990.88
2018-03-30T11:01:12.434Z,990.84
2018-03-30T11:02:12.497Z,990.90
2018-03-30T11:03:12.561Z,990.78
2018-03-30T11:04:12.627Z,990.77
2018-03-30T11:05:12.749Z,990.85
2018-03-30T11:06:12.752Z,990.79
2018-03-30T11:07:12.815Z,990.66
2018-03-30T11:08:12.879Z,990.68
2018-03-30T11:09:12.943Z,990.69
2018-03-30T11:10:13.007Z,990.62
2018-03-30T11:11:13.071Z,990.56
2018-03-30T11:12:13.134Z,990.57
2018-03-30T11:13:13.200Z,990.61
2018-03-30T11:14:13.263Z,990.63
2018-03-30T11:15:13.329Z,990.68
2018-03-30T11:16:13.396Z,990.71
2018-03-30T11:17:13.456Z,990.68
2018-03-30T11:18:13.520Z,990.70
2018-03-30T11:19:13.583Z,990.74
2018-03-30T11:20:13.647Z,990.80
2018-03-30T11:21:13.713Z,990.86
2018-03-30T11:22:13.776Z,990.84
2018-03-30T11:23:13.841Z,990.84
2018-03-30T11:24:13.905Z,990.80
2018-03-30T11:25:13.971Z,990.85
2018-03-30T11:26:14.333Z,990.92
2018-03-30T11:27:14.097Z,990.90
2018-03-30T11:28:14.163Z,990.87
2018-03-30T11:29:14.227Z,990.88
2018-03-30T11:30:14.292Z,991.00
2018-03-30T11:31:14.357Z,990.94
2018-03-30T11:32:14.420Z,991.00
2018-03-30T11:33:14.487Z,990.85
2018-03-30T11:34:14.551Z,990.84
2018-03-30T11:35:14.616Z,990.74
2018-03-30T11:36:14.684Z,990.67
2018-03-30T11:37:14.745Z,990.79
2018-03-30T11:38:14.810Z,990.73
2018-03-30T11:39:14.874Z,990.68
2018-03-30T11:40:14.940Z,990.70
2018-03-30T11:41:15.006Z,990.69
2018-03-30T11:42:15.069Z,991.04
2018-03-30T11:43:15.134Z,991.29
2018-03-30T11:44:15.200Z,991.39
2018-03-30T11:45:15.268Z,991.20
2018-03-30T11:46:15.332Z,990.92
2018-03-30T11:47:15.396Z,990.71
2018-03-30T11:48:15.461Z,990.85
2018-03-30T11:49:15.526Z,990.93
2018-03-30T11:50:15.590Z,991.09
2018-03-30T11:51:15.654Z,991.17
2018-03-30T11:52:15.721Z,991.10
2018-03-30T11:53:15.786Z,990.76
2018-03-30T11:54:15.851Z,990.67
2018-03-30T11:55:15.916Z,990.89
2018-03-30T11:56:15.983Z,991.04
2018-03-30T11:57:16.047Z,991.08
2018-03-30T11:58:16.111Z,991.00
2018-03-30T11:59:16.177Z,990.68
2018-03-30T12:00:16.242Z,990.63
2018-03-30T12:01:16.307Z,990.56
2018-03-30T12:02:16.372Z,990.48
2018-03-30T12:03:16.436Z,990.40
2018-03-30T12:04:16.503Z,990.33
2018-03-30T12:05:16.567Z,990.30
2018-03-30T12:06:16.633Z,990.33
2018-03-30T12:07:16.697Z,990.44
2018-03-30T12:08:16.762Z,990.44
2018-03-30T12:09:16.828Z,990.40
2018-03-30T12:10:16.894Z,990.41
2018-03-30T12:11:16.955Z,990.55
2018-03-30T12:12:17.021Z,990.43
2018-03-30T12:13:17.091Z,990.35
2018-03-30T12:14:17.153Z,990.48
2018-03-30T12:15:17.215Z,990.51
2018-03-30T12:16:17.282Z,990.55
2018-03-30T12:17:17.345Z,990.49
2018-03-30T12:18:17.411Z,990.46
2018-03-30T12:19:17.475Z,990.32
2018-03-30T12:20:17.539Z,990.22
2018-03-30T12:21:17.604Z,990.15
2018-03-30T12:22:17.669Z,990.24
2018-03-30T12:23:17.733Z,990.26
2018-03-30T12:24:17.797Z,990.31
2018-03-30T12:25:17.865Z,990.33
2018-03-30T12:26:17.924Z,990.30
2018-03-30T12:27:17.990Z,990.32
2018-03-30T12:28:18.057Z,990.28
2018-03-30T12:29:18.118Z,990.14